עמוד ראשי
METAR-TAF:

METAR-TAF

שדות תעופה :

Klawock, אלסקה, ארצות הברית

קו רוחב: 55-35N, קו אורך: 133-05W, גובה: 24מטר

תצפית מזג אוויר נוכחית

הדו"ח נערך לפני 57דקות, בשעה 08:53 UTC
רוח 3קשר מכיוון דרום/דרום-מערב
טמפרטורת 12 צלסיוס
לחות 82%
לחץ 1015 hPa
ראות: 16.1קילומטר
מעונן בגובה 7000רגל

METAR: PAKW 240853Z AUTO 20003KT 10SM OVC070 12/09 A2996 RMK AO2 SLP143 T01220089 401780111 52010 TSNO

זמן: 01:50 (09:50 UTC)

תחזית

הדו"ח נערך לפני 4 שעות ו 11דקות, בשעה 05:39 UTC
תחזית בתוקף מ 24 ב 06 UTC עד 25 ב 06 UTC
רוח 5קשר עם כיוונים משתנים
ראות: 10קילומטר
עננים בינוניים בגובה 5000רגל
זמנית מ -
24 ב 13 UTC עד 24 ב 17 UTC
ראות: 6.4קילומטר
מעט עננים בגובה 800רגל
עננים בינוניים בגובה 1800רגל
אד,

TAF: PAKW 240539Z 2406/2506 VRB05KT P6SM BKN050 TEMPO 2413/2417 4SM BR FEW008 BKN018 AMD LTD TO CLD VIS AND WIND

תצפיות ותחזיות מזג אוויר לגבי יותר מ- 4,000 שדות תעופה ברחבי העולם. דוחות METAR ו- TAF.

התחנות הזמינות מסומנות בנקודות צהובות ואדומות על גבי המפה.

העבר את העכבר לנקודה הצבעונית על מנת לראות את שם התחנה.

לאחר מכן, לחץ כדי לראות את תוכן ואת תחזיות מזג האוויר.

כדי לשנות את המפה: לחץ על הכפתורים הירוקים עם הפלוס השחור כדי להתקרב; על הכפתור הירוק עם המקף כדי להתרחק; או בחיצים הירוקים למפות סמוכות.


METAR-TAF: